createdAt,value
2023-02-12T00:01:58.262Z,22.60
2023-02-12T00:05:01.177Z,38.20
2023-02-12T00:08:04.165Z,27.93
2023-02-12T00:11:12.088Z,26.33
2023-02-12T00:14:14.963Z,25.90
2023-02-12T00:17:19.265Z,28.43
2023-02-12T00:20:22.453Z,23.33
2023-02-12T00:23:25.369Z,26.67
2023-02-12T00:26:28.298Z,25.73
2023-02-12T00:29:31.209Z,31.10
2023-02-12T00:32:37.291Z,31.47
2023-02-12T00:35:40.317Z,28.03
2023-02-12T00:38:43.616Z,29.47
2023-02-12T00:41:46.653Z,27.30
2023-02-12T00:44:49.627Z,25.10
2023-02-12T00:47:53.938Z,25.90
2023-02-12T00:50:57.510Z,31.50
2023-02-12T00:54:00.402Z,30.20
2023-02-12T00:57:03.289Z,27.37
2023-02-12T01:00:07.321Z,26.40
2023-02-12T01:03:11.960Z,28.90
2023-02-12T01:06:14.953Z,26.07
2023-02-12T01:09:18.731Z,27.07
2023-02-12T01:12:21.646Z,25.77
2023-02-12T01:15:25.400Z,26.23
2023-02-12T01:18:29.689Z,29.53
2023-02-12T01:21:35.293Z,24.47
2023-02-12T01:24:38.184Z,25.83
2023-02-12T01:27:41.658Z,26.80
2023-02-12T01:30:44.667Z,30.90
2023-02-12T01:33:50.732Z,27.27
2023-02-12T01:36:53.653Z,26.13
2023-02-12T01:39:57.302Z,32.73
2023-02-12T01:43:02.903Z,29.17
2023-02-12T01:46:07.138Z,26.40
2023-02-12T01:49:16.041Z,24.23
2023-02-12T01:52:23.835Z,28.73
2023-02-12T01:55:27.786Z,26.90
2023-02-12T01:58:36.976Z,26.97
2023-02-12T02:01:40.408Z,27.67
2023-02-12T02:04:47.994Z,21.97
2023-02-12T02:07:50.948Z,26.47
2023-02-12T02:10:54.093Z,24.17
2023-02-12T02:14:15.320Z,28.27
2023-02-12T02:17:31.896Z,31.27
2023-02-12T02:21:00.172Z,26.73
2023-02-12T02:24:54.389Z,23.63
2023-02-12T02:28:08.788Z,27.37
2023-02-12T02:31:17.849Z,28.03
2023-02-12T02:34:28.067Z,24.43
2023-02-12T02:37:36.399Z,26.10
2023-02-12T02:40:45.854Z,23.37
2023-02-12T02:43:51.021Z,26.07
2023-02-12T02:46:57.762Z,23.80
2023-02-12T02:50:04.964Z,22.47
2023-02-12T02:53:11.442Z,24.60
2023-02-12T02:56:18.674Z,21.87
2023-02-12T02:59:25.419Z,18.57
2023-02-12T03:02:34.040Z,24.70
2023-02-12T03:05:41.051Z,22.10
2023-02-12T03:08:51.584Z,23.40
2023-02-12T03:11:58.102Z,22.13
2023-02-12T03:15:09.051Z,23.23
2023-02-12T03:18:20.833Z,27.10
2023-02-12T03:21:31.579Z,24.70
2023-02-12T03:24:39.990Z,24.73
2023-02-12T03:27:46.607Z,24.10
2023-02-12T03:30:55.070Z,25.03
2023-02-12T03:34:10.299Z,26.13
2023-02-12T03:37:19.849Z,22.70
2023-02-12T03:40:29.336Z,22.93
2023-02-12T03:43:39.612Z,23.23
2023-02-12T03:46:48.144Z,25.77
2023-02-12T03:50:00.355Z,23.30
2023-02-12T03:53:03.487Z,22.27
2023-02-12T03:56:10.943Z,21.83
2023-02-12T03:59:13.863Z,24.13
2023-02-12T04:02:17.906Z,21.67
2023-02-12T04:05:23.839Z,20.30
2023-02-12T04:08:28.143Z,23.53
2023-02-12T04:11:41.481Z,24.77
2023-02-12T04:14:50.858Z,23.33
2023-02-12T04:18:02.371Z,25.23
2023-02-12T04:21:13.701Z,27.33
2023-02-12T04:24:20.525Z,27.40
2023-02-12T04:27:30.644Z,21.87
2023-02-12T04:30:38.531Z,26.57
2023-02-12T04:33:47.666Z,24.83
2023-02-12T04:36:58.081Z,22.37
2023-02-12T04:40:03.767Z,27.03
2023-02-12T04:43:06.664Z,26.23
2023-02-12T04:46:10.446Z,25.90
2023-02-12T04:49:17.069Z,25.77
2023-02-12T04:52:21.363Z,21.83
2023-02-12T04:55:24.299Z,23.27
2023-02-12T04:58:27.169Z,27.70
2023-02-12T05:01:31.445Z,22.23
2023-02-12T05:04:34.484Z,24.73
2023-02-12T05:07:38.854Z,25.20
2023-02-12T05:10:41.873Z,24.37
2023-02-12T05:13:44.761Z,23.20
2023-02-12T05:16:47.680Z,25.10
2023-02-12T05:19:50.599Z,27.33
2023-02-12T05:22:55.492Z,25.40
2023-02-12T05:26:00.117Z,24.23
2023-02-12T05:29:03.492Z,22.23
2023-02-12T05:32:07.798Z,24.33
2023-02-12T05:35:10.804Z,28.37
2023-02-12T05:38:15.262Z,29.03
2023-02-12T05:41:20.377Z,23.30
2023-02-12T05:44:23.426Z,28.57
2023-02-12T05:47:26.829Z,22.70
2023-02-12T05:50:30.330Z,25.20
2023-02-12T05:53:34.832Z,26.87
2023-02-12T05:56:42.906Z,27.03
2023-02-12T05:59:45.852Z,26.43
2023-02-12T06:02:49.042Z,28.47
2023-02-12T06:05:52.161Z,24.83
2023-02-12T06:08:56.613Z,25.03
2023-02-12T06:11:59.558Z,29.90
2023-02-12T06:15:02.445Z,31.10
2023-02-12T06:18:05.505Z,28.47
2023-02-12T06:21:08.384Z,32.20
2023-02-12T06:24:13.683Z,35.90
2023-02-12T06:27:16.682Z,32.30
2023-02-12T06:30:19.688Z,34.33
2023-02-12T06:33:22.767Z,38.93
2023-02-12T06:36:26.076Z,32.40
2023-02-12T06:39:30.318Z,41.80
2023-02-12T06:42:33.274Z,35.87
2023-02-12T06:45:36.740Z,37.60
2023-02-12T06:48:39.638Z,38.93
2023-02-12T06:51:42.842Z,50.77
2023-02-12T06:54:47.139Z,47.27
2023-02-12T06:57:50.035Z,48.83
2023-02-12T07:00:52.940Z,36.60
2023-02-12T07:03:57.351Z,40.50
2023-02-12T07:07:00.244Z,34.83
2023-02-12T07:10:04.594Z,34.27
2023-02-12T07:13:07.546Z,39.93
2023-02-12T07:16:12.725Z,36.67
2023-02-12T07:19:16.444Z,36.73
2023-02-12T07:22:19.309Z,35.17
2023-02-12T07:25:23.538Z,46.53
2023-02-12T07:28:27.568Z,37.97
2023-02-12T07:31:30.595Z,39.00
2023-02-12T07:34:33.836Z,45.60
2023-02-12T07:37:36.733Z,41.07
2023-02-12T07:40:40.975Z,44.90
2023-02-12T07:43:45.454Z,44.80
2023-02-12T07:46:50.107Z,42.83
2023-02-12T07:49:53.035Z,42.63
2023-02-12T07:52:55.935Z,46.83
2023-02-12T07:56:07.801Z,46.93
2023-02-12T07:59:13.639Z,49.67
2023-02-12T08:02:16.533Z,48.17
2023-02-12T08:05:19.554Z,50.63
2023-02-12T08:08:22.477Z,48.23
2023-02-12T08:11:27.790Z,48.70
2023-02-12T08:14:30.994Z,57.37
2023-02-12T08:17:33.961Z,53.50
2023-02-12T08:20:36.827Z,54.60
2023-02-12T08:23:40.624Z,51.00
2023-02-12T08:26:45.176Z,45.90
2023-02-12T08:29:48.294Z,39.30
2023-02-12T08:32:51.859Z,38.27
2023-02-12T08:36:03.019Z,44.87
2023-02-12T08:39:06.819Z,36.33
2023-02-12T08:42:11.161Z,41.23
2023-02-12T08:45:14.045Z,40.47
2023-02-12T08:48:16.912Z,43.50
2023-02-12T08:51:22.842Z,41.77
2023-02-12T08:54:28.028Z,36.50
2023-02-12T08:57:34.378Z,38.87
2023-02-12T09:00:40.175Z,38.17
2023-02-12T09:03:44.250Z,35.93
2023-02-12T09:06:47.660Z,28.60
2023-02-12T09:09:50.547Z,31.20
2023-02-12T09:12:54.756Z,30.30
2023-02-12T09:15:58.026Z,32.63
2023-02-12T09:19:01.296Z,28.40
2023-02-12T09:22:04.200Z,34.60
2023-02-12T09:25:07.883Z,41.57
2023-02-12T09:28:14.732Z,34.93
2023-02-12T09:31:20.830Z,37.87
2023-02-12T09:34:23.844Z,32.63
2023-02-12T09:37:26.744Z,27.40
2023-02-12T09:40:37.287Z,33.60
2023-02-12T09:43:48.214Z,33.07
2023-02-12T09:46:56.421Z,28.60
2023-02-12T09:50:14.078Z,27.43
2023-02-12T09:53:19.933Z,30.30
2023-02-12T09:56:25.106Z,24.90
2023-02-12T09:59:34.646Z,27.13
2023-02-12T10:02:39.063Z,9.23
2023-02-12T10:05:45.892Z,7.33
2023-02-12T10:09:13.600Z,15.63
2023-02-12T10:12:27.796Z,14.03
2023-02-12T10:15:39.038Z,14.53
2023-02-12T10:18:53.863Z,8.33
2023-02-12T10:22:06.949Z,6.30
2023-02-12T10:25:21.737Z,5.43
2023-02-12T10:28:28.197Z,7.47
2023-02-12T10:31:37.260Z,7.67
2023-02-12T10:34:42.574Z,6.40
2023-02-12T10:37:50.195Z,7.17
2023-02-12T10:40:55.186Z,7.20
2023-02-12T10:43:58.753Z,7.33
2023-02-12T10:47:03.249Z,6.87
2023-02-12T10:50:20.712Z,5.07
2023-02-12T10:53:25.299Z,4.57
2023-02-12T10:56:29.420Z,5.70
2023-02-12T10:59:34.886Z,6.57
2023-02-12T11:02:39.279Z,7.43
2023-02-12T11:05:44.375Z,8.20
2023-02-12T11:08:48.190Z,6.30
2023-02-12T11:11:51.418Z,7.07
2023-02-12T11:14:57.584Z,7.13
2023-02-12T11:18:05.535Z,5.20
2023-02-12T11:21:11.037Z,4.37
2023-02-12T11:24:31.017Z,3.13
2023-02-12T11:27:33.954Z,2.70
2023-02-12T11:30:36.892Z,2.67
2023-02-12T11:33:41.228Z,2.57
2023-02-12T11:36:46.698Z,2.50
2023-02-12T11:39:51.383Z,10.20
2023-02-12T11:42:56.797Z,3.47
2023-02-12T11:46:01.705Z,1.80
2023-02-12T11:49:09.304Z,2.03
2023-02-12T11:52:21.555Z,1.30
2023-02-12T11:55:27.510Z,2.20
2023-02-12T11:58:31.790Z,1.30
2023-02-12T12:01:38.683Z,1.17
2023-02-12T12:04:45.009Z,3.93
2023-02-12T12:07:51.199Z,2.87
2023-02-12T12:11:00.855Z,1.37
2023-02-12T12:14:09.114Z,5.53
2023-02-12T12:17:33.078Z,3.10
2023-02-12T12:20:42.544Z,1.40
2023-02-12T12:23:52.012Z,3.07
2023-02-12T12:27:00.884Z,2.93
2023-02-12T12:30:11.210Z,3.70
2023-02-12T12:33:20.292Z,7.23
2023-02-12T12:36:58.319Z,2.50
2023-02-12T12:40:18.949Z,2.03
2023-02-12T12:43:33.521Z,3.00
2023-02-12T12:46:47.870Z,3.40
2023-02-12T12:50:04.437Z,5.87
2023-02-12T12:53:21.497Z,7.07
2023-02-12T12:56:39.696Z,6.67
2023-02-12T13:00:03.642Z,5.87
2023-02-12T13:03:22.464Z,6.33
2023-02-12T13:06:35.673Z,6.57
2023-02-12T13:09:55.427Z,8.90
2023-02-12T13:13:26.342Z,7.07
2023-02-12T13:16:34.785Z,9.97
2023-02-12T13:19:54.245Z,9.27
2023-02-12T13:23:02.078Z,5.30
2023-02-12T13:26:12.711Z,4.73
2023-02-12T13:29:21.367Z,13.77
2023-02-12T13:32:27.981Z,5.87
2023-02-12T13:35:32.720Z,11.90
2023-02-12T13:38:38.526Z,42.50
2023-02-12T13:41:49.887Z,5.00
2023-02-12T13:45:00.468Z,5.07
2023-02-12T13:48:26.010Z,4.23
2023-02-12T13:51:39.071Z,4.17
2023-02-12T13:54:50.799Z,5.43
2023-02-12T13:58:37.719Z,3.53
2023-02-12T14:01:47.652Z,8.17
2023-02-12T14:04:59.761Z,3.23
2023-02-12T14:08:05.633Z,3.00
2023-02-12T14:11:10.992Z,3.53
2023-02-12T14:14:14.404Z,4.23
2023-02-12T14:17:53.903Z,7.57
2023-02-12T14:21:32.342Z,9.93
2023-02-12T14:24:51.439Z,5.70
2023-02-12T14:27:56.578Z,6.33
2023-02-12T14:31:39.330Z,5.97
2023-02-12T14:34:43.688Z,6.30
2023-02-12T14:37:46.563Z,6.13
2023-02-12T14:40:49.975Z,7.13
2023-02-12T14:44:04.782Z,4.90
2023-02-12T14:47:17.261Z,8.33
2023-02-12T14:50:31.926Z,7.07
2023-02-12T14:53:37.153Z,7.33
2023-02-12T14:56:47.639Z,5.80
2023-02-12T14:59:53.908Z,3.67
2023-02-12T15:03:02.582Z,8.47
2023-02-12T15:06:11.255Z,6.63
2023-02-12T15:09:22.065Z,6.10
2023-02-12T15:12:32.612Z,6.03
2023-02-12T15:15:40.415Z,6.10
2023-02-12T15:18:49.161Z,7.90
2023-02-12T15:21:55.368Z,6.63
2023-02-12T15:25:16.582Z,5.60
2023-02-12T15:28:23.984Z,6.67
2023-02-12T15:31:30.028Z,6.73
2023-02-12T15:34:36.119Z,7.13
2023-02-12T15:37:41.873Z,6.90
2023-02-12T15:40:55.217Z,7.60
2023-02-12T15:43:58.373Z,8.07
2023-02-12T15:47:05.029Z,9.67
2023-02-12T15:50:08.846Z,9.23
2023-02-12T15:53:14.263Z,8.70
2023-02-12T15:56:20.659Z,9.57
2023-02-12T15:59:28.882Z,9.93
2023-02-12T16:02:34.390Z,11.10
2023-02-12T16:05:37.354Z,9.60
2023-02-12T16:08:43.599Z,10.10
2023-02-12T16:11:48.970Z,11.67
2023-02-12T16:14:54.313Z,10.63
2023-02-12T16:17:59.587Z,11.10
2023-02-12T16:21:14.603Z,11.80
2023-02-12T16:24:28.803Z,11.50
2023-02-12T16:27:34.194Z,13.00
2023-02-12T16:30:42.243Z,13.90
2023-02-12T16:33:48.633Z,14.17
2023-02-12T16:36:53.531Z,14.33
2023-02-12T16:40:30.097Z,18.53
2023-02-12T16:43:33.022Z,19.83
2023-02-12T16:46:46.201Z,19.07
2023-02-12T16:49:56.778Z,20.17
2023-02-12T16:53:02.138Z,19.13
2023-02-12T16:56:07.202Z,18.93
2023-02-12T16:59:11.266Z,19.77
2023-02-12T17:02:15.738Z,22.37
2023-02-12T17:05:20.982Z,22.13
2023-02-12T17:08:24.965Z,23.90
2023-02-12T17:11:29.930Z,20.97
2023-02-12T17:14:32.868Z,23.13
2023-02-12T17:17:35.805Z,22.57
2023-02-12T17:20:39.202Z,26.37
2023-02-12T17:23:43.088Z,20.70
2023-02-12T17:26:50.347Z,23.33
2023-02-12T17:29:53.513Z,23.80
2023-02-12T17:32:56.484Z,22.83
2023-02-12T17:35:59.722Z,21.87
2023-02-12T17:39:04.864Z,21.60
2023-02-12T17:42:09.169Z,23.07
2023-02-12T17:45:12.082Z,24.90
2023-02-12T17:48:17.587Z,22.13
2023-02-12T17:51:20.900Z,22.40
2023-02-12T17:54:23.771Z,25.23
2023-02-12T17:57:28.027Z,28.37
2023-02-12T18:00:31.186Z,29.33
2023-02-12T18:03:34.161Z,30.50
2023-02-12T18:06:37.054Z,30.80
2023-02-12T18:09:40.105Z,30.93
2023-02-12T18:12:44.382Z,26.10
2023-02-12T18:15:47.413Z,31.03
2023-02-12T18:18:50.715Z,32.60
2023-02-12T18:21:53.647Z,32.57
2023-02-12T18:24:57.618Z,30.03
2023-02-12T18:28:02.445Z,32.80
2023-02-12T18:31:06.713Z,25.03
2023-02-12T18:34:09.756Z,33.47
2023-02-12T18:37:14.217Z,26.40
2023-02-12T18:40:17.580Z,30.23
2023-02-12T18:43:23.294Z,31.37
2023-02-12T18:46:30.013Z,30.67
2023-02-12T18:49:32.955Z,24.70
2023-02-12T18:52:37.178Z,29.97
2023-02-12T18:55:40.465Z,27.87
2023-02-12T18:58:45.230Z,30.17
2023-02-12T19:01:50.487Z,28.63
2023-02-12T19:04:53.602Z,28.43
2023-02-12T19:07:57.122Z,30.77
2023-02-12T19:11:00.032Z,32.13
2023-02-12T19:14:04.578Z,30.33
2023-02-12T19:17:07.775Z,30.27
2023-02-12T19:20:11.802Z,30.53
2023-02-12T19:23:14.770Z,34.50
2023-02-12T19:26:17.920Z,31.70
2023-02-12T19:29:22.334Z,31.43
2023-02-12T19:32:25.252Z,30.03
2023-02-12T19:35:28.145Z,28.00
2023-02-12T19:38:31.104Z,29.63
2023-02-12T19:41:40.611Z,25.40
2023-02-12T19:44:46.730Z,24.80
2023-02-12T19:47:50.728Z,27.57
2023-02-12T19:50:53.786Z,28.33
2023-02-12T19:54:00.144Z,28.13
2023-02-12T19:57:03.822Z,24.90
2023-02-12T20:00:09.558Z,28.07
2023-02-12T20:03:13.513Z,24.90
2023-02-12T20:06:19.351Z,22.37
2023-02-12T20:09:23.206Z,23.20
2023-02-12T20:12:26.250Z,25.23
2023-02-12T20:15:30.616Z,23.27
2023-02-12T20:18:34.204Z,20.40
2023-02-12T20:21:37.683Z,21.30
2023-02-12T20:24:40.911Z,23.03
2023-02-12T20:27:43.824Z,27.10
2023-02-12T20:30:48.676Z,16.83
2023-02-12T20:33:55.424Z,21.27
2023-02-12T20:36:58.375Z,19.80
2023-02-12T20:40:01.301Z,17.60
2023-02-12T20:43:04.256Z,20.80
2023-02-12T20:46:10.345Z,21.43
2023-02-12T20:49:14.885Z,23.10
2023-02-12T20:52:17.755Z,18.80
2023-02-12T20:55:20.953Z,21.30
2023-02-12T20:58:23.865Z,20.83
2023-02-12T21:01:31.567Z,20.20
2023-02-12T21:04:34.599Z,19.57
2023-02-12T21:07:37.457Z,22.80
2023-02-12T21:10:40.427Z,23.30
2023-02-12T21:13:53.711Z,24.20
2023-02-12T21:17:06.684Z,26.87
2023-02-12T21:20:10.157Z,28.30
2023-02-12T21:23:13.093Z,29.27
2023-02-12T21:26:17.732Z,25.73
2023-02-12T21:29:21.071Z,30.70
2023-02-12T21:32:25.505Z,23.97
2023-02-12T21:35:29.156Z,19.57
2023-02-12T21:38:34.610Z,14.57
2023-02-12T21:41:40.244Z,16.80
2023-02-12T21:44:43.222Z,16.37
2023-02-12T21:47:47.677Z,18.03
2023-02-12T21:50:50.910Z,15.17
2023-02-12T21:53:55.923Z,15.57
2023-02-12T21:56:59.312Z,14.23
2023-02-12T22:00:02.218Z,15.77
2023-02-12T22:03:06.669Z,15.73
2023-02-12T22:06:10.108Z,15.30
2023-02-12T22:09:15.409Z,14.63
2023-02-12T22:12:19.399Z,15.67
2023-02-12T22:15:22.602Z,17.37
2023-02-12T22:18:26.845Z,13.47
2023-02-12T22:21:32.932Z,13.87
2023-02-12T22:24:37.144Z,13.60
2023-02-12T22:27:40.080Z,15.67
2023-02-12T22:30:45.345Z,21.17
2023-02-12T22:33:50.739Z,20.90
2023-02-12T22:36:53.620Z,18.07
2023-02-12T22:39:56.694Z,19.57
2023-02-12T22:42:59.796Z,15.23
2023-02-12T22:46:03.232Z,15.13
2023-02-12T22:49:07.745Z,15.20
2023-02-12T22:52:10.921Z,16.53
2023-02-12T22:55:14.123Z,15.83
2023-02-12T22:58:17.447Z,13.37
2023-02-12T23:01:21.146Z,17.73
2023-02-12T23:04:25.699Z,14.07
2023-02-12T23:07:28.777Z,15.37
2023-02-12T23:10:32.252Z,14.03
2023-02-12T23:13:35.435Z,13.00
2023-02-12T23:16:38.775Z,13.30
2023-02-12T23:19:43.077Z,11.90
2023-02-12T23:22:46.003Z,12.00
2023-02-12T23:25:49.583Z,11.67
2023-02-12T23:28:52.691Z,11.90
2023-02-12T23:31:55.635Z,13.60
2023-02-12T23:34:59.870Z,11.90
2023-02-12T23:38:04.328Z,12.07
2023-02-12T23:41:07.464Z,11.83
2023-02-12T23:44:11.270Z,12.70
2023-02-12T23:47:14.523Z,13.30
2023-02-12T23:50:19.307Z,12.53
2023-02-12T23:53:22.423Z,14.03
2023-02-12T23:56:25.377Z,13.13
2023-02-12T23:59:28.331Z,15.43
